sensor_id;sensor_type;location;lat;lon;timestamp;pressure;altitude;pressure_sealevel;temperature;humidity
77212;BME280;66206;0.000;0.000;2023-07-29T00:01:56;97450.28;;;25.50;39.13
77212;BME280;66206;0.000;0.000;2023-07-29T00:04:23;97450.31;;;25.60;39.15
77212;BME280;66206;0.000;0.000;2023-07-29T00:06:49;97448.07;;;25.57;39.44
77212;BME280;66206;0.000;0.000;2023-07-29T00:09:16;97450.25;;;25.49;39.33
77212;BME280;66206;0.000;0.000;2023-07-29T00:11:43;97446.83;;;25.31;39.64
77212;BME280;66206;0.000;0.000;2023-07-29T00:14:10;97441.30;;;25.14;39.82
77212;BME280;66206;0.000;0.000;2023-07-29T00:16:36;97437.66;;;25.21;40.05
77212;BME280;66206;0.000;0.000;2023-07-29T00:19:03;97437.80;;;25.20;40.22
77212;BME280;66206;0.000;0.000;2023-07-29T00:21:30;97431.17;;;25.31;39.87
77212;BME280;66206;0.000;0.000;2023-07-29T00:23:57;97426.71;;;25.21;40.11
77212;BME280;66206;0.000;0.000;2023-07-29T00:26:25;97422.35;;;25.05;40.23
77212;BME280;66206;0.000;0.000;2023-07-29T00:28:51;97421.28;;;25.23;40.26
77212;BME280;66206;0.000;0.000;2023-07-29T00:31:18;97423.08;;;25.07;40.40
77212;BME280;66206;0.000;0.000;2023-07-29T00:33:45;97422.55;;;25.09;40.45
77212;BME280;66206;0.000;0.000;2023-07-29T00:36:12;97418.16;;;25.18;40.25
77212;BME280;66206;0.000;0.000;2023-07-29T00:38:38;97415.04;;;25.08;40.24
77212;BME280;66206;0.000;0.000;2023-07-29T00:41:05;97418.94;;;25.12;40.23
77212;BME280;66206;0.000;0.000;2023-07-29T00:43:33;97421.48;;;25.24;40.11
77212;BME280;66206;0.000;0.000;2023-07-29T00:46:00;97425.93;;;25.00;40.27
77212;BME280;66206;0.000;0.000;2023-07-29T00:48:26;97419.82;;;24.91;40.60
77212;BME280;66206;0.000;0.000;2023-07-29T00:50:53;97416.83;;;25.15;40.32
77212;BME280;66206;0.000;0.000;2023-07-29T00:53:20;97414.51;;;25.01;40.45
77212;BME280;66206;0.000;0.000;2023-07-29T00:55:47;97421.91;;;25.06;40.50
77212;BME280;66206;0.000;0.000;2023-07-29T00:58:14;97425.98;;;25.10;40.37
77212;BME280;66206;0.000;0.000;2023-07-29T01:00:41;97425.55;;;24.86;40.83
77212;BME280;66206;0.000;0.000;2023-07-29T01:03:08;97423.40;;;24.86;40.67
77212;BME280;66206;0.000;0.000;2023-07-29T01:05:39;97425.91;;;24.98;40.66
77212;BME280;66206;0.000;0.000;2023-07-29T01:08:04;97425.44;;;24.96;40.55
77212;BME280;66206;0.000;0.000;2023-07-29T01:10:37;97417.61;;;24.96;40.69
77212;BME280;66206;0.000;0.000;2023-07-29T01:13:01;97419.69;;;24.79;40.83
77212;BME280;66206;0.000;0.000;2023-07-29T01:15:32;97425.62;;;25.06;40.57
77212;BME280;66206;0.000;0.000;2023-07-29T01:18:02;97423.32;;;24.97;40.61
77212;BME280;66206;0.000;0.000;2023-07-29T01:20:25;97422.90;;;24.96;40.58
77212;BME280;66206;0.000;0.000;2023-07-29T01:22:52;97423.74;;;24.82;40.69
77212;BME280;66206;0.000;0.000;2023-07-29T01:25:19;97425.12;;;24.98;40.54
77212;BME280;66206;0.000;0.000;2023-07-29T01:27:47;97424.48;;;24.82;40.75
77212;BME280;66206;0.000;0.000;2023-07-29T01:30:13;97427.25;;;25.11;40.21
77212;BME280;66206;0.000;0.000;2023-07-29T01:32:42;97422.59;;;24.84;40.65
77212;BME280;66206;0.000;0.000;2023-07-29T01:35:12;97421.70;;;24.87;40.50
77212;BME280;66206;0.000;0.000;2023-07-29T01:37:36;97422.75;;;24.95;40.47
77212;BME280;66206;0.000;0.000;2023-07-29T01:40:05;97426.69;;;25.10;40.17
77212;BME280;66206;0.000;0.000;2023-07-29T01:42:34;97429.23;;;25.16;40.11
77212;BME280;66206;0.000;0.000;2023-07-29T01:45:01;97428.77;;;24.96;40.42
77212;BME280;66206;0.000;0.000;2023-07-29T01:47:28;97428.54;;;24.88;40.32
77212;BME280;66206;0.000;0.000;2023-07-29T01:49:55;97423.87;;;24.96;40.41
77212;BME280;66206;0.000;0.000;2023-07-29T01:52:21;97425.46;;;25.08;40.21
77212;BME280;66206;0.000;0.000;2023-07-29T01:54:48;97421.46;;;24.97;40.29
77212;BME280;66206;0.000;0.000;2023-07-29T01:57:15;97423.64;;;24.92;40.22
77212;BME280;66206;0.000;0.000;2023-07-29T01:59:42;97419.25;;;24.83;40.56
77212;BME280;66206;0.000;0.000;2023-07-29T02:02:09;97412.52;;;24.86;40.43
77212;BME280;66206;0.000;0.000;2023-07-29T02:04:36;97413.50;;;24.72;40.50
77212;BME280;66206;0.000;0.000;2023-07-29T02:07:03;97408.58;;;24.92;40.38
77212;BME280;66206;0.000;0.000;2023-07-29T02:09:30;97405.32;;;24.78;40.56
77212;BME280;66206;0.000;0.000;2023-07-29T02:11:57;97406.09;;;24.75;40.53
77212;BME280;66206;0.000;0.000;2023-07-29T02:14:24;97409.51;;;24.84;40.51
77212;BME280;66206;0.000;0.000;2023-07-29T02:16:50;97404.76;;;24.77;40.53
77212;BME280;66206;0.000;0.000;2023-07-29T02:19:17;97403.17;;;24.73;40.53
77212;BME280;66206;0.000;0.000;2023-07-29T02:21:44;97403.78;;;24.81;40.42
77212;BME280;66206;0.000;0.000;2023-07-29T02:24:11;97402.46;;;24.81;40.40
77212;BME280;66206;0.000;0.000;2023-07-29T02:26:37;97398.70;;;24.76;40.33
77212;BME280;66206;0.000;0.000;2023-07-29T02:29:04;97396.29;;;24.76;40.38
77212;BME280;66206;0.000;0.000;2023-07-29T02:31:31;97389.33;;;24.59;40.57
77212;BME280;66206;0.000;0.000;2023-07-29T02:33:58;97389.29;;;24.73;40.41
77212;BME280;66206;0.000;0.000;2023-07-29T02:36:24;97381.31;;;24.90;40.22
77212;BME280;66206;0.000;0.000;2023-07-29T02:38:51;97371.24;;;24.85;40.24
77212;BME280;66206;0.000;0.000;2023-07-29T02:41:18;97369.49;;;24.72;40.51
77212;BME280;66206;0.000;0.000;2023-07-29T02:43:48;97373.68;;;24.80;40.31
77212;BME280;66206;0.000;0.000;2023-07-29T02:46:15;97374.97;;;24.79;40.28
77212;BME280;66206;0.000;0.000;2023-07-29T02:48:41;97367.62;;;24.83;40.18
77212;BME280;66206;0.000;0.000;2023-07-29T02:51:08;97362.23;;;24.63;40.40
77212;BME280;66206;0.000;0.000;2023-07-29T02:53:35;97357.78;;;24.77;40.26
77212;BME280;66206;0.000;0.000;2023-07-29T02:56:02;97356.10;;;24.78;40.25
77212;BME280;66206;0.000;0.000;2023-07-29T02:58:29;97350.32;;;24.72;40.21
77212;BME280;66206;0.000;0.000;2023-07-29T03:01:00;97352.23;;;24.81;40.02
77212;BME280;66206;0.000;0.000;2023-07-29T03:03:21;97357.13;;;24.56;40.28
77212;BME280;66206;0.000;0.000;2023-07-29T03:05:48;97350.42;;;24.58;40.42
77212;BME280;66206;0.000;0.000;2023-07-29T03:08:15;97350.11;;;24.63;40.34
77212;BME280;66206;0.000;0.000;2023-07-29T03:10:42;97352.08;;;24.50;40.44
77212;BME280;66206;0.000;0.000;2023-07-29T03:13:08;97344.43;;;24.57;40.33
77212;BME280;66206;0.000;0.000;2023-07-29T03:15:35;97356.57;;;24.38;40.55
77212;BME280;66206;0.000;0.000;2023-07-29T03:18:02;97367.19;;;24.44;40.44
77212;BME280;66206;0.000;0.000;2023-07-29T03:20:29;97370.96;;;24.46;40.39
77212;BME280;66206;0.000;0.000;2023-07-29T03:22:55;97375.18;;;24.53;40.26
77212;BME280;66206;0.000;0.000;2023-07-29T03:25:22;97378.39;;;24.55;40.20
77212;BME280;66206;0.000;0.000;2023-07-29T03:27:49;97384.09;;;24.58;40.08
77212;BME280;66206;0.000;0.000;2023-07-29T03:30:18;97386.34;;;24.63;39.96
77212;BME280;66206;0.000;0.000;2023-07-29T03:32:45;97381.63;;;24.65;39.85
77212;BME280;66206;0.000;0.000;2023-07-29T03:35:12;97377.06;;;24.77;39.70
77212;BME280;66206;0.000;0.000;2023-07-29T03:37:39;97380.40;;;24.70;39.81
77212;BME280;66206;0.000;0.000;2023-07-29T03:40:06;97383.74;;;24.76;39.66
77212;BME280;66206;0.000;0.000;2023-07-29T03:42:33;97387.31;;;24.70;39.74
77212;BME280;66206;0.000;0.000;2023-07-29T03:45:00;97381.63;;;24.68;39.75
77212;BME280;66206;0.000;0.000;2023-07-29T03:47:27;97377.18;;;24.65;39.73
77212;BME280;66206;0.000;0.000;2023-07-29T03:49:54;97374.91;;;24.56;39.92
77212;BME280;66206;0.000;0.000;2023-07-29T03:52:21;97375.95;;;24.67;39.76
77212;BME280;66206;0.000;0.000;2023-07-29T03:54:48;97371.40;;;24.50;39.95
77212;BME280;66206;0.000;0.000;2023-07-29T03:57:14;97366.48;;;24.62;39.80
77212;BME280;66206;0.000;0.000;2023-07-29T03:59:41;97363.59;;;24.62;39.79
77212;BME280;66206;0.000;0.000;2023-07-29T04:02:08;97357.10;;;24.46;40.03
77212;BME280;66206;0.000;0.000;2023-07-29T04:04:35;97359.66;;;24.53;40.03
77212;BME280;66206;0.000;0.000;2023-07-29T04:07:01;97356.80;;;24.40;40.08
77212;BME280;66206;0.000;0.000;2023-07-29T04:09:28;97349.38;;;24.30;40.30
77212;BME280;66206;0.000;0.000;2023-07-29T04:11:55;97343.09;;;24.27;40.29
77212;BME280;66206;0.000;0.000;2023-07-29T04:14:22;97339.33;;;24.44;40.14
77212;BME280;66206;0.000;0.000;2023-07-29T04:16:48;97330.29;;;24.34;40.23
77212;BME280;66206;0.000;0.000;2023-07-29T04:19:15;97333.30;;;24.20;40.47
77212;BME280;66206;0.000;0.000;2023-07-29T04:21:42;97333.36;;;24.31;40.37
77212;BME280;66206;0.000;0.000;2023-07-29T04:24:09;97334.13;;;24.30;40.28
77212;BME280;66206;0.000;0.000;2023-07-29T04:26:36;97334.04;;;24.38;40.27
77212;BME280;66206;0.000;0.000;2023-07-29T04:29:02;97334.95;;;24.10;40.72
77212;BME280;66206;0.000;0.000;2023-07-29T04:31:29;97338.91;;;24.21;40.43
77212;BME280;66206;0.000;0.000;2023-07-29T04:33:56;97339.75;;;24.26;40.29
77212;BME280;66206;0.000;0.000;2023-07-29T04:36:23;97342.48;;;24.34;40.37
77212;BME280;66206;0.000;0.000;2023-07-29T04:38:49;97347.38;;;24.10;40.57
77212;BME280;66206;0.000;0.000;2023-07-29T04:41:16;97347.53;;;24.41;40.25
77212;BME280;66206;0.000;0.000;2023-07-29T04:43:43;97337.63;;;24.38;40.30
77212;BME280;66206;0.000;0.000;2023-07-29T04:46:10;97333.74;;;24.32;40.31
77212;BME280;66206;0.000;0.000;2023-07-29T04:48:37;97331.45;;;24.31;40.30
77212;BME280;66206;0.000;0.000;2023-07-29T04:51:04;97331.51;;;24.35;40.31
77212;BME280;66206;0.000;0.000;2023-07-29T04:53:30;97330.12;;;24.26;40.39
77212;BME280;66206;0.000;0.000;2023-07-29T04:55:57;97327.02;;;24.49;40.23
77212;BME280;66206;0.000;0.000;2023-07-29T04:58:24;97326.23;;;24.30;40.46
77212;BME280;66206;0.000;0.000;2023-07-29T05:00:51;97318.53;;;24.30;40.43
77212;BME280;66206;0.000;0.000;2023-07-29T05:03:18;97317.36;;;24.38;40.29
77212;BME280;66206;0.000;0.000;2023-07-29T05:05:44;97320.31;;;24.22;40.57
77212;BME280;66206;0.000;0.000;2023-07-29T05:08:11;97317.91;;;24.48;40.46
77212;BME280;66206;0.000;0.000;2023-07-29T05:10:38;97311.72;;;24.37;40.53
77212;BME280;66206;0.000;0.000;2023-07-29T05:13:05;97308.11;;;24.15;40.76
77212;BME280;66206;0.000;0.000;2023-07-29T05:15:31;97301.33;;;24.28;40.57
77212;BME280;66206;0.000;0.000;2023-07-29T05:17:58;97304.14;;;24.18;40.62
77212;BME280;66206;0.000;0.000;2023-07-29T05:20:25;97309.75;;;24.36;40.33
77212;BME280;66206;0.000;0.000;2023-07-29T05:22:52;97310.68;;;24.66;40.14
77212;BME280;66206;0.000;0.000;2023-07-29T05:25:18;97317.76;;;24.31;40.56
77212;BME280;66206;0.000;0.000;2023-07-29T05:27:45;97321.22;;;24.20;40.71
77212;BME280;66206;0.000;0.000;2023-07-29T05:30:12;97321.41;;;24.42;40.34
77212;BME280;66206;0.000;0.000;2023-07-29T05:32:39;97323.18;;;24.49;40.19
77212;BME280;66206;0.000;0.000;2023-07-29T05:35:06;97328.40;;;24.29;40.67
77212;BME280;66206;0.000;0.000;2023-07-29T05:37:33;97327.36;;;24.37;40.53
77212;BME280;66206;0.000;0.000;2023-07-29T05:39:59;97327.24;;;24.30;40.70
77212;BME280;66206;0.000;0.000;2023-07-29T05:42:26;97320.22;;;24.31;40.60
77212;BME280;66206;0.000;0.000;2023-07-29T05:44:53;97319.53;;;24.28;40.65
77212;BME280;66206;0.000;0.000;2023-07-29T05:47:20;97316.89;;;24.27;40.67
77212;BME280;66206;0.000;0.000;2023-07-29T05:49:46;97318.73;;;24.44;40.65
77212;BME280;66206;0.000;0.000;2023-07-29T05:52:13;97326.70;;;24.26;40.78
77212;BME280;66206;0.000;0.000;2023-07-29T05:54:40;97325.53;;;24.34;40.73
77212;BME280;66206;0.000;0.000;2023-07-29T05:57:07;97318.61;;;24.23;40.85
77212;BME280;66206;0.000;0.000;2023-07-29T05:59:33;97312.22;;;24.39;40.80
77212;BME280;66206;0.000;0.000;2023-07-29T06:02:00;97312.71;;;24.23;40.98
77212;BME280;66206;0.000;0.000;2023-07-29T06:04:27;97316.82;;;24.36;40.78
77212;BME280;66206;0.000;0.000;2023-07-29T06:06:54;97320.03;;;24.40;40.88
77212;BME280;66206;0.000;0.000;2023-07-29T06:09:20;97326.57;;;24.45;40.74
77212;BME280;66206;0.000;0.000;2023-07-29T06:11:47;97331.91;;;24.39;40.82
77212;BME280;66206;0.000;0.000;2023-07-29T06:14:14;97332.36;;;24.44;40.88
77212;BME280;66206;0.000;0.000;2023-07-29T06:16:41;97337.03;;;24.13;41.33
77212;BME280;66206;0.000;0.000;2023-07-29T06:19:07;97339.59;;;24.22;41.24
77212;BME280;66206;0.000;0.000;2023-07-29T06:21:34;97337.36;;;24.32;40.99
77212;BME280;66206;0.000;0.000;2023-07-29T06:24:01;97337.49;;;24.18;41.30
77212;BME280;66206;0.000;0.000;2023-07-29T06:26:28;97335.15;;;24.20;41.32
77212;BME280;66206;0.000;0.000;2023-07-29T06:28:55;97332.14;;;24.30;41.37
77212;BME280;66206;0.000;0.000;2023-07-29T06:31:22;97332.25;;;24.01;41.54
77212;BME280;66206;0.000;0.000;2023-07-29T06:33:48;97332.92;;;24.21;41.33
77212;BME280;66206;0.000;0.000;2023-07-29T06:36:15;97325.41;;;24.31;41.29
77212;BME280;66206;0.000;0.000;2023-07-29T06:38:42;97325.65;;;24.36;41.22
77212;BME280;66206;0.000;0.000;2023-07-29T06:41:09;97326.64;;;24.38;41.29
77212;BME280;66206;0.000;0.000;2023-07-29T06:43:35;97337.81;;;24.31;41.32
77212;BME280;66206;0.000;0.000;2023-07-29T06:46:02;97364.52;;;24.32;41.38
77212;BME280;66206;0.000;0.000;2023-07-29T06:48:29;97383.12;;;24.06;41.77
77212;BME280;66206;0.000;0.000;2023-07-29T06:50:56;97378.53;;;23.93;42.04
77212;BME280;66206;0.000;0.000;2023-07-29T06:53:22;97364.71;;;24.19;41.87
77212;BME280;66206;0.000;0.000;2023-07-29T06:55:49;97355.05;;;24.12;42.10
77212;BME280;66206;0.000;0.000;2023-07-29T06:58:16;97347.29;;;24.32;42.19
77212;BME280;66206;0.000;0.000;2023-07-29T07:00:43;97343.57;;;24.12;42.71
77212;BME280;66206;0.000;0.000;2023-07-29T07:03:10;97349.01;;;24.32;42.44
77212;BME280;66206;0.000;0.000;2023-07-29T07:05:36;97351.57;;;23.65;43.34
77212;BME280;66206;0.000;0.000;2023-07-29T07:08:03;97360.02;;;24.05;42.70
77212;BME280;66206;0.000;0.000;2023-07-29T07:10:30;97354.51;;;24.10;42.64
77212;BME280;66206;0.000;0.000;2023-07-29T07:12:57;97350.07;;;24.04;42.50
77212;BME280;66206;0.000;0.000;2023-07-29T07:15:23;97352.78;;;24.39;41.96
77212;BME280;66206;0.000;0.000;2023-07-29T07:17:50;97352.68;;;24.45;42.01
77212;BME280;66206;0.000;0.000;2023-07-29T07:20:17;97351.98;;;24.25;42.19
77212;BME280;66206;0.000;0.000;2023-07-29T07:22:44;97345.56;;;24.40;42.27
77212;BME280;66206;0.000;0.000;2023-07-29T07:25:11;97337.86;;;24.36;42.30
77212;BME280;66206;0.000;0.000;2023-07-29T07:27:37;97323.70;;;24.46;42.25
77212;BME280;66206;0.000;0.000;2023-07-29T07:30:05;97326.62;;;24.41;42.33
77212;BME280;66206;0.000;0.000;2023-07-29T07:32:32;97340.22;;;24.51;42.20
77212;BME280;66206;0.000;0.000;2023-07-29T07:34:58;97335.18;;;24.42;42.53
77212;BME280;66206;0.000;0.000;2023-07-29T07:37:25;97327.28;;;24.54;42.38
77212;BME280;66206;0.000;0.000;2023-07-29T07:39:52;97337.27;;;24.53;42.33
77212;BME280;66206;0.000;0.000;2023-07-29T07:42:19;97332.25;;;23.99;43.14
77212;BME280;66206;0.000;0.000;2023-07-29T07:44:45;97329.21;;;24.40;42.73
77212;BME280;66206;0.000;0.000;2023-07-29T07:47:12;97329.53;;;24.54;42.55
77212;BME280;66206;0.000;0.000;2023-07-29T07:49:39;97332.40;;;24.60;42.52
77212;BME280;66206;0.000;0.000;2023-07-29T07:52:06;97336.61;;;24.18;43.26
77212;BME280;66206;0.000;0.000;2023-07-29T07:54:33;97334.14;;;24.51;42.79
77212;BME280;66206;0.000;0.000;2023-07-29T07:57:00;97345.75;;;24.41;42.98
77212;BME280;66206;0.000;0.000;2023-07-29T07:59:26;97345.65;;;24.53;43.01
77212;BME280;66206;0.000;0.000;2023-07-29T08:01:53;97340.59;;;24.48;43.08
77212;BME280;66206;0.000;0.000;2023-07-29T08:04:20;97330.00;;;24.52;43.09
77212;BME280;66206;0.000;0.000;2023-07-29T08:06:47;97330.02;;;24.49;43.15
77212;BME280;66206;0.000;0.000;2023-07-29T08:09:13;97337.87;;;24.36;43.48
77212;BME280;66206;0.000;0.000;2023-07-29T08:11:40;97342.02;;;24.44;43.48
77212;BME280;66206;0.000;0.000;2023-07-29T08:14:07;97337.28;;;24.11;44.03
77212;BME280;66206;0.000;0.000;2023-07-29T08:16:34;97333.26;;;24.34;43.78
77212;BME280;66206;0.000;0.000;2023-07-29T08:19:00;97309.42;;;24.14;44.22
77212;BME280;66206;0.000;0.000;2023-07-29T08:21:27;97313.18;;;24.35;44.15
77212;BME280;66206;0.000;0.000;2023-07-29T08:23:54;97322.91;;;24.21;44.12
77212;BME280;66206;0.000;0.000;2023-07-29T08:26:21;97319.12;;;24.08;44.51
77212;BME280;66206;0.000;0.000;2023-07-29T08:28:48;97317.25;;;24.34;44.28
77212;BME280;66206;0.000;0.000;2023-07-29T08:31:14;97337.79;;;24.42;44.11
77212;BME280;66206;0.000;0.000;2023-07-29T08:33:41;97323.47;;;24.38;44.27
77212;BME280;66206;0.000;0.000;2023-07-29T08:36:08;97296.90;;;24.27;44.44
77212;BME280;66206;0.000;0.000;2023-07-29T08:38:35;97304.01;;;24.26;44.37
77212;BME280;66206;0.000;0.000;2023-07-29T08:41:05;97298.82;;;24.16;44.63
77212;BME280;66206;0.000;0.000;2023-07-29T08:43:28;97313.54;;;24.05;44.98
77212;BME280;66206;0.000;0.000;2023-07-29T08:45:55;97313.18;;;23.99;45.09
77212;BME280;66206;0.000;0.000;2023-07-29T08:48:23;97325.79;;;24.21;44.83
77212;BME280;66206;0.000;0.000;2023-07-29T08:50:50;97319.29;;;23.80;45.53
77212;BME280;66206;0.000;0.000;2023-07-29T08:53:18;97321.61;;;24.14;45.04
77212;BME280;66206;0.000;0.000;2023-07-29T08:55:45;97322.77;;;24.18;44.82
77212;BME280;66206;0.000;0.000;2023-07-29T08:58:12;97335.56;;;24.28;44.68
77212;BME280;66206;0.000;0.000;2023-07-29T09:00:40;97319.52;;;25.07;43.22
77212;BME280;66206;0.000;0.000;2023-07-29T09:03:07;97324.87;;;24.58;43.76
77212;BME280;66206;0.000;0.000;2023-07-29T09:05:34;97323.95;;;24.70;43.61
77212;BME280;66206;0.000;0.000;2023-07-29T09:08:01;97324.46;;;24.66;43.68
77212;BME280;66206;0.000;0.000;2023-07-29T09:10:28;97326.22;;;25.26;42.56
77212;BME280;66206;0.000;0.000;2023-07-29T09:12:55;97327.92;;;25.41;42.10
77212;BME280;66206;0.000;0.000;2023-07-29T09:15:30;97334.72;;;25.38;42.22
77212;BME280;66206;0.000;0.000;2023-07-29T09:17:52;97337.02;;;25.30;42.18
77212;BME280;66206;0.000;0.000;2023-07-29T09:20:23;97345.87;;;25.22;42.52
77212;BME280;66206;0.000;0.000;2023-07-29T09:22:44;97348.16;;;25.18;42.59
77212;BME280;66206;0.000;0.000;2023-07-29T09:25:12;97355.62;;;25.41;42.16
77212;BME280;66206;0.000;0.000;2023-07-29T09:27:38;97363.70;;;25.41;42.08
77212;BME280;66206;0.000;0.000;2023-07-29T09:30:06;97373.84;;;25.48;42.00
77212;BME280;66206;0.000;0.000;2023-07-29T09:32:33;97379.25;;;25.21;42.40
77212;BME280;66206;0.000;0.000;2023-07-29T09:34:59;97373.95;;;25.37;41.92
77212;BME280;66206;0.000;0.000;2023-07-29T09:37:26;97368.24;;;25.63;41.62
77212;BME280;66206;0.000;0.000;2023-07-29T09:39:53;97364.86;;;25.67;41.65
77212;BME280;66206;0.000;0.000;2023-07-29T09:42:20;97372.80;;;25.62;42.45
77212;BME280;66206;0.000;0.000;2023-07-29T09:44:48;97374.99;;;25.25;42.53
77212;BME280;66206;0.000;0.000;2023-07-29T09:47:19;97370.48;;;25.49;42.29
77212;BME280;66206;0.000;0.000;2023-07-29T09:49:40;97367.92;;;25.51;42.06
77212;BME280;66206;0.000;0.000;2023-07-29T09:52:08;97370.93;;;25.75;41.49
77212;BME280;66206;0.000;0.000;2023-07-29T09:54:35;97366.58;;;25.77;41.62
77212;BME280;66206;0.000;0.000;2023-07-29T09:57:03;97358.00;;;26.11;41.20
77212;BME280;66206;0.000;0.000;2023-07-29T09:59:33;97351.89;;;25.70;41.95
77212;BME280;66206;0.000;0.000;2023-07-29T10:02:00;97348.03;;;26.19;41.46
77212;BME280;66206;0.000;0.000;2023-07-29T10:04:27;97347.87;;;26.21;41.43
77212;BME280;66206;0.000;0.000;2023-07-29T10:06:54;97345.05;;;26.03;41.55
77212;BME280;66206;0.000;0.000;2023-07-29T10:09:22;97339.98;;;26.22;41.21
77212;BME280;66206;0.000;0.000;2023-07-29T10:11:49;97348.44;;;26.19;41.74
77212;BME280;66206;0.000;0.000;2023-07-29T10:14:16;97354.34;;;26.08;41.64
77212;BME280;66206;0.000;0.000;2023-07-29T10:16:44;97350.26;;;26.44;41.30
77212;BME280;66206;0.000;0.000;2023-07-29T10:19:12;97361.08;;;26.14;41.86
77212;BME280;66206;0.000;0.000;2023-07-29T10:21:40;97359.82;;;26.24;41.84
77212;BME280;66206;0.000;0.000;2023-07-29T10:24:06;97353.37;;;26.40;41.56
77212;BME280;66206;0.000;0.000;2023-07-29T10:26:36;97353.30;;;26.18;42.19
77212;BME280;66206;0.000;0.000;2023-07-29T10:29:04;97350.25;;;26.15;42.39
77212;BME280;66206;0.000;0.000;2023-07-29T10:31:31;97339.77;;;25.59;43.64
77212;BME280;66206;0.000;0.000;2023-07-29T10:33:57;97335.01;;;25.90;43.02
77212;BME280;66206;0.000;0.000;2023-07-29T10:36:24;97340.95;;;25.81;43.39
77212;BME280;66206;0.000;0.000;2023-07-29T10:38:51;97341.41;;;26.02;42.83
77212;BME280;66206;0.000;0.000;2023-07-29T10:41:18;97343.98;;;26.08;42.77
77212;BME280;66206;0.000;0.000;2023-07-29T10:43:45;97337.48;;;26.35;42.25
77212;BME280;66206;0.000;0.000;2023-07-29T10:46:15;97336.93;;;26.30;42.03
77212;BME280;66206;0.000;0.000;2023-07-29T10:48:41;97336.27;;;26.43;41.71
77212;BME280;66206;0.000;0.000;2023-07-29T10:51:21;97340.49;;;26.35;41.88
77212;BME280;66206;0.000;0.000;2023-07-29T10:53:33;97344.44;;;26.15;42.13
77212;BME280;66206;0.000;0.000;2023-07-29T10:55:59;97343.54;;;26.71;41.33
77212;BME280;66206;0.000;0.000;2023-07-29T10:58:26;97344.28;;;26.66;41.24
77212;BME280;66206;0.000;0.000;2023-07-29T11:00:55;97341.59;;;26.36;41.75
77212;BME280;66206;0.000;0.000;2023-07-29T11:03:22;97337.69;;;25.96;42.28
77212;BME280;66206;0.000;0.000;2023-07-29T11:05:49;97333.60;;;25.77;42.45
77212;BME280;66206;0.000;0.000;2023-07-29T11:08:17;97327.32;;;26.55;41.29
77212;BME280;66206;0.000;0.000;2023-07-29T11:10:44;97331.14;;;26.75;41.55
77212;BME280;66206;0.000;0.000;2023-07-29T11:13:11;97333.83;;;26.55;41.65
77212;BME280;66206;0.000;0.000;2023-07-29T11:15:37;97332.51;;;26.17;42.40
77212;BME280;66206;0.000;0.000;2023-07-29T11:18:05;97327.90;;;25.99;42.42
77212;BME280;66206;0.000;0.000;2023-07-29T11:20:33;97328.30;;;26.63;41.52
77212;BME280;66206;0.000;0.000;2023-07-29T11:23:01;97324.60;;;26.56;41.08
77212;BME280;66206;0.000;0.000;2023-07-29T11:25:28;97324.70;;;26.45;41.20
77212;BME280;66206;0.000;0.000;2023-07-29T11:27:56;97325.69;;;26.55;41.12
77212;BME280;66206;0.000;0.000;2023-07-29T11:30:24;97329.26;;;26.60;41.02
77212;BME280;66206;0.000;0.000;2023-07-29T11:32:51;97333.44;;;26.45;40.91
77212;BME280;66206;0.000;0.000;2023-07-29T11:35:19;97333.42;;;26.78;40.56
77212;BME280;66206;0.000;0.000;2023-07-29T11:37:47;97331.22;;;26.78;40.72
77212;BME280;66206;0.000;0.000;2023-07-29T11:40:14;97326.02;;;26.46;41.10
77212;BME280;66206;0.000;0.000;2023-07-29T11:42:41;97318.97;;;26.80;40.41
77212;BME280;66206;0.000;0.000;2023-07-29T11:45:08;97323.93;;;26.20;40.98
77212;BME280;66206;0.000;0.000;2023-07-29T11:47:35;97331.39;;;26.36;40.74
77212;BME280;66206;0.000;0.000;2023-07-29T11:50:02;97333.60;;;26.39;40.37
77212;BME280;66206;0.000;0.000;2023-07-29T11:52:30;97332.05;;;26.23;40.54
77212;BME280;66206;0.000;0.000;2023-07-29T11:54:57;97326.79;;;26.16;40.46
77212;BME280;66206;0.000;0.000;2023-07-29T11:57:24;97322.24;;;26.56;39.84
77212;BME280;66206;0.000;0.000;2023-07-29T11:59:51;97307.04;;;26.67;39.78
77212;BME280;66206;0.000;0.000;2023-07-29T12:02:19;97307.64;;;26.53;40.53
77212;BME280;66206;0.000;0.000;2023-07-29T12:04:47;97304.44;;;26.46;40.69
77212;BME280;66206;0.000;0.000;2023-07-29T12:07:14;97298.96;;;26.27;40.63
77212;BME280;66206;0.000;0.000;2023-07-29T12:09:41;97292.04;;;26.32;40.48
77212;BME280;66206;0.000;0.000;2023-07-29T12:12:08;97282.01;;;26.37;40.53
77212;BME280;66206;0.000;0.000;2023-07-29T12:14:35;97283.71;;;26.14;40.67
77212;BME280;66206;0.000;0.000;2023-07-29T12:17:03;97291.48;;;26.42;40.33
77212;BME280;66206;0.000;0.000;2023-07-29T12:19:31;97289.74;;;26.35;40.03
77212;BME280;66206;0.000;0.000;2023-07-29T12:21:58;97292.30;;;26.06;40.75
77212;BME280;66206;0.000;0.000;2023-07-29T12:24:25;97287.69;;;26.35;40.24
77212;BME280;66206;0.000;0.000;2023-07-29T12:26:52;97285.89;;;26.22;40.39
77212;BME280;66206;0.000;0.000;2023-07-29T12:29:19;97287.74;;;26.31;40.36
77212;BME280;66206;0.000;0.000;2023-07-29T12:31:46;97287.55;;;26.32;40.03
77212;BME280;66206;0.000;0.000;2023-07-29T12:34:17;97287.10;;;25.74;41.19
77212;BME280;66206;0.000;0.000;2023-07-29T12:36:41;97290.79;;;26.20;40.98
77212;BME280;66206;0.000;0.000;2023-07-29T12:39:15;97282.75;;;26.81;39.90
77212;BME280;66206;0.000;0.000;2023-07-29T12:41:37;97287.42;;;26.08;40.23
77212;BME280;66206;0.000;0.000;2023-07-29T12:44:04;97280.99;;;26.75;39.34
77212;BME280;66206;0.000;0.000;2023-07-29T12:46:30;97287.34;;;26.50;39.56
77212;BME280;66206;0.000;0.000;2023-07-29T12:48:57;97284.04;;;26.79;39.33
77212;BME280;66206;0.000;0.000;2023-07-29T12:51:24;97285.04;;;26.37;39.76
77212;BME280;66206;0.000;0.000;2023-07-29T12:53:51;97290.27;;;26.60;39.26
77212;BME280;66206;0.000;0.000;2023-07-29T12:56:18;97289.12;;;26.56;39.29
77212;BME280;66206;0.000;0.000;2023-07-29T12:58:44;97275.57;;;27.10;38.48
77212;BME280;66206;0.000;0.000;2023-07-29T13:01:11;97267.38;;;27.12;38.27
77212;BME280;66206;0.000;0.000;2023-07-29T13:03:38;97268.31;;;27.10;38.07
77212;BME280;66206;0.000;0.000;2023-07-29T13:06:05;97264.12;;;27.06;37.97
77212;BME280;66206;0.000;0.000;2023-07-29T13:08:31;97254.41;;;27.16;37.67